sensor_id;sensor_type;location;lat;lon;timestamp;P1;durP1;ratioP1;P2;durP2;ratioP2
12703;SDS011;6416;52.182;7.650;2023-10-13T00:01:44;13.45;;;12.13;;
12703;SDS011;6416;52.182;7.650;2023-10-13T00:04:09;17.38;;;13.10;;
12703;SDS011;6416;52.182;7.650;2023-10-13T00:06:35;14.45;;;13.10;;
12703;SDS011;6416;52.182;7.650;2023-10-13T00:09:00;13.05;;;11.75;;
12703;SDS011;6416;52.182;7.650;2023-10-13T00:11:26;13.27;;;11.98;;
12703;SDS011;6416;52.182;7.650;2023-10-13T00:13:51;13.38;;;11.98;;
12703;SDS011;6416;52.182;7.650;2023-10-13T00:16:17;14.77;;;13.15;;
12703;SDS011;6416;52.182;7.650;2023-10-13T00:18:46;14.57;;;13.18;;
12703;SDS011;6416;52.182;7.650;2023-10-13T00:21:13;15.48;;;13.52;;
12703;SDS011;6416;52.182;7.650;2023-10-13T00:23:39;14.48;;;13.07;;
12703;SDS011;6416;52.182;7.650;2023-10-13T00:26:06;15.30;;;12.77;;
12703;SDS011;6416;52.182;7.650;2023-10-13T00:28:31;13.57;;;12.27;;
12703;SDS011;6416;52.182;7.650;2023-10-13T00:30:56;12.85;;;11.65;;
12703;SDS011;6416;52.182;7.650;2023-10-13T00:33:22;13.75;;;12.45;;
12703;SDS011;6416;52.182;7.650;2023-10-13T00:35:49;13.00;;;11.75;;
12703;SDS011;6416;52.182;7.650;2023-10-13T00:38:15;11.80;;;10.70;;
12703;SDS011;6416;52.182;7.650;2023-10-13T00:40:40;13.55;;;12.20;;
12703;SDS011;6416;52.182;7.650;2023-10-13T00:43:05;13.63;;;11.63;;
12703;SDS011;6416;52.182;7.650;2023-10-13T00:45:32;13.50;;;11.45;;
12703;SDS011;6416;52.182;7.650;2023-10-13T00:47:59;12.52;;;11.18;;
12703;SDS011;6416;52.182;7.650;2023-10-13T00:50:25;14.15;;;11.73;;
12703;SDS011;6416;52.182;7.650;2023-10-13T00:52:50;12.63;;;11.30;;
12703;SDS011;6416;52.182;7.650;2023-10-13T00:55:16;14.13;;;11.20;;
12703;SDS011;6416;52.182;7.650;2023-10-13T00:57:43;12.60;;;11.30;;
12703;SDS011;6416;52.182;7.650;2023-10-13T01:00:09;12.57;;;11.32;;
12703;SDS011;6416;52.182;7.650;2023-10-13T01:02:35;12.70;;;11.27;;
12703;SDS011;6416;52.182;7.650;2023-10-13T01:05:01;13.30;;;10.57;;
12703;SDS011;6416;52.182;7.650;2023-10-13T01:07:30;15.00;;;11.07;;
12703;SDS011;6416;52.182;7.650;2023-10-13T01:09:55;12.63;;;11.27;;
12703;SDS011;6416;52.182;7.650;2023-10-13T01:12:21;12.30;;;10.88;;
12703;SDS011;6416;52.182;7.650;2023-10-13T01:14:46;11.75;;;10.65;;
12703;SDS011;6416;52.182;7.650;2023-10-13T01:17:12;12.23;;;10.80;;
12703;SDS011;6416;52.182;7.650;2023-10-13T01:19:37;11.88;;;10.77;;
12703;SDS011;6416;52.182;7.650;2023-10-13T01:22:03;12.23;;;10.93;;
12703;SDS011;6416;52.182;7.650;2023-10-13T01:24:29;13.80;;;10.63;;
12703;SDS011;6416;52.182;7.650;2023-10-13T01:26:54;11.05;;;9.93;;
12703;SDS011;6416;52.182;7.650;2023-10-13T01:29:20;11.55;;;10.50;;
12703;SDS011;6416;52.182;7.650;2023-10-13T01:31:46;11.60;;;10.50;;
12703;SDS011;6416;52.182;7.650;2023-10-13T01:34:12;12.93;;;11.52;;
12703;SDS011;6416;52.182;7.650;2023-10-13T01:36:41;11.50;;;10.25;;
12703;SDS011;6416;52.182;7.650;2023-10-13T01:39:07;12.02;;;10.55;;
12703;SDS011;6416;52.182;7.650;2023-10-13T01:41:33;11.55;;;10.40;;
12703;SDS011;6416;52.182;7.650;2023-10-13T01:43:58;10.68;;;9.68;;
12703;SDS011;6416;52.182;7.650;2023-10-13T01:46:24;11.13;;;10.13;;
12703;SDS011;6416;52.182;7.650;2023-10-13T01:48:49;11.70;;;10.18;;
12703;SDS011;6416;52.182;7.650;2023-10-13T01:51:15;11.90;;;10.70;;
12703;SDS011;6416;52.182;7.650;2023-10-13T01:53:40;11.52;;;10.30;;
12703;SDS011;6416;52.182;7.650;2023-10-13T01:56:06;10.85;;;9.85;;
12703;SDS011;6416;52.182;7.650;2023-10-13T01:58:32;10.73;;;9.63;;
12703;SDS011;6416;52.182;7.650;2023-10-13T02:00:57;11.10;;;9.70;;
12703;SDS011;6416;52.182;7.650;2023-10-13T02:03:23;10.60;;;9.63;;
12703;SDS011;6416;52.182;7.650;2023-10-13T02:05:49;10.48;;;9.48;;
12703;SDS011;6416;52.182;7.650;2023-10-13T02:10:40;10.43;;;9.32;;
12703;SDS011;6416;52.182;7.650;2023-10-13T02:13:06;9.80;;;8.82;;
12703;SDS011;6416;52.182;7.650;2023-10-13T02:15:31;11.02;;;9.63;;
12703;SDS011;6416;52.182;7.650;2023-10-13T02:17:57;10.43;;;9.27;;
12703;SDS011;6416;52.182;7.650;2023-10-13T02:20:22;10.23;;;9.25;;
12703;SDS011;6416;52.182;7.650;2023-10-13T02:22:48;9.55;;;8.63;;
12703;SDS011;6416;52.182;7.650;2023-10-13T02:25:13;9.18;;;8.43;;
12703;SDS011;6416;52.182;7.650;2023-10-13T02:27:38;10.02;;;9.05;;
12703;SDS011;6416;52.182;7.650;2023-10-13T02:30:04;10.20;;;9.30;;
12703;SDS011;6416;52.182;7.650;2023-10-13T02:32:30;10.02;;;9.07;;
12703;SDS011;6416;52.182;7.650;2023-10-13T02:34:56;11.93;;;8.90;;
12703;SDS011;6416;52.182;7.650;2023-10-13T02:37:21;10.85;;;8.88;;
12703;SDS011;6416;52.182;7.650;2023-10-13T02:39:46;9.88;;;8.35;;
12703;SDS011;6416;52.182;7.650;2023-10-13T02:42:12;9.68;;;8.50;;
12703;SDS011;6416;52.182;7.650;2023-10-13T02:44:37;11.75;;;8.65;;
12703;SDS011;6416;52.182;7.650;2023-10-13T02:47:03;11.45;;;8.55;;
12703;SDS011;6416;52.182;7.650;2023-10-13T02:49:29;13.05;;;8.90;;
12703;SDS011;6416;52.182;7.650;2023-10-13T02:51:54;9.02;;;7.30;;
12703;SDS011;6416;52.182;7.650;2023-10-13T02:54:20;9.55;;;8.18;;
12703;SDS011;6416;52.182;7.650;2023-10-13T02:56:45;10.35;;;7.68;;
12703;SDS011;6416;52.182;7.650;2023-10-13T02:59:11;10.63;;;8.50;;
12703;SDS011;6416;52.182;7.650;2023-10-13T03:01:36;10.65;;;7.75;;
12703;SDS011;6416;52.182;7.650;2023-10-13T03:04:02;9.95;;;7.97;;
12703;SDS011;6416;52.182;7.650;2023-10-13T03:06:29;12.30;;;8.23;;
12703;SDS011;6416;52.182;7.650;2023-10-13T03:08:54;8.85;;;7.72;;
12703;SDS011;6416;52.182;7.650;2023-10-13T03:11:20;8.50;;;7.18;;
12703;SDS011;6416;52.182;7.650;2023-10-13T03:13:45;8.90;;;7.63;;
12703;SDS011;6416;52.182;7.650;2023-10-13T03:16:12;9.73;;;7.65;;
12703;SDS011;6416;52.182;7.650;2023-10-13T03:18:44;12.82;;;7.97;;
12703;SDS011;6416;52.182;7.650;2023-10-13T03:21:11;9.35;;;7.72;;
12703;SDS011;6416;52.182;7.650;2023-10-13T03:23:39;10.27;;;7.88;;
12703;SDS011;6416;52.182;7.650;2023-10-13T03:26:08;9.27;;;7.35;;
12703;SDS011;6416;52.182;7.650;2023-10-13T03:28:34;8.32;;;7.53;;
12703;SDS011;6416;52.182;7.650;2023-10-13T03:31:00;9.52;;;7.28;;
12703;SDS011;6416;52.182;7.650;2023-10-13T03:33:25;8.02;;;7.28;;
12703;SDS011;6416;52.182;7.650;2023-10-13T03:35:51;7.47;;;6.40;;
12703;SDS011;6416;52.182;7.650;2023-10-13T03:38:16;7.43;;;6.72;;
12703;SDS011;6416;52.182;7.650;2023-10-13T03:40:45;11.48;;;7.30;;
12703;SDS011;6416;52.182;7.650;2023-10-13T03:43:15;7.82;;;7.03;;
12703;SDS011;6416;52.182;7.650;2023-10-13T03:45:41;7.93;;;7.03;;
12703;SDS011;6416;52.182;7.650;2023-10-13T03:48:12;8.20;;;6.70;;
12703;SDS011;6416;52.182;7.650;2023-10-13T03:50:40;7.32;;;6.32;;
12703;SDS011;6416;52.182;7.650;2023-10-13T03:53:05;8.20;;;6.97;;
12703;SDS011;6416;52.182;7.650;2023-10-13T03:55:31;8.52;;;6.50;;
12703;SDS011;6416;52.182;7.650;2023-10-13T03:57:57;7.72;;;6.93;;
12703;SDS011;6416;52.182;7.650;2023-10-13T04:00:22;8.55;;;6.40;;
12703;SDS011;6416;52.182;7.650;2023-10-13T04:02:48;9.15;;;7.18;;
12703;SDS011;6416;52.182;7.650;2023-10-13T04:05:13;7.63;;;6.47;;
12703;SDS011;6416;52.182;7.650;2023-10-13T04:07:38;7.68;;;6.57;;
12703;SDS011;6416;52.182;7.650;2023-10-13T04:10:04;8.23;;;7.13;;
12703;SDS011;6416;52.182;7.650;2023-10-13T04:12:32;7.35;;;6.60;;
12703;SDS011;6416;52.182;7.650;2023-10-13T04:14:57;10.07;;;6.57;;
12703;SDS011;6416;52.182;7.650;2023-10-13T04:17:23;9.52;;;7.18;;
12703;SDS011;6416;52.182;7.650;2023-10-13T04:19:53;8.07;;;7.28;;
12703;SDS011;6416;52.182;7.650;2023-10-13T04:22:22;8.27;;;7.30;;
12703;SDS011;6416;52.182;7.650;2023-10-13T04:24:48;7.70;;;6.95;;
12703;SDS011;6416;52.182;7.650;2023-10-13T04:27:14;8.55;;;7.70;;
12703;SDS011;6416;52.182;7.650;2023-10-13T04:29:40;7.78;;;6.97;;
12703;SDS011;6416;52.182;7.650;2023-10-13T04:32:06;8.65;;;7.75;;
12703;SDS011;6416;52.182;7.650;2023-10-13T04:34:31;8.60;;;7.47;;
12703;SDS011;6416;52.182;7.650;2023-10-13T04:36:57;8.73;;;7.93;;
12703;SDS011;6416;52.182;7.650;2023-10-13T04:39:22;8.60;;;7.70;;
12703;SDS011;6416;52.182;7.650;2023-10-13T04:41:47;11.65;;;8.48;;
12703;SDS011;6416;52.182;7.650;2023-10-13T04:44:14;11.93;;;8.38;;
12703;SDS011;6416;52.182;7.650;2023-10-13T04:46:41;9.82;;;8.57;;
12703;SDS011;6416;52.182;7.650;2023-10-13T04:49:06;10.23;;;8.23;;
12703;SDS011;6416;52.182;7.650;2023-10-13T04:51:32;10.43;;;8.98;;
12703;SDS011;6416;52.182;7.650;2023-10-13T04:53:57;10.95;;;9.68;;
12703;SDS011;6416;52.182;7.650;2023-10-13T04:56:22;10.65;;;9.63;;
12703;SDS011;6416;52.182;7.650;2023-10-13T04:58:48;14.57;;;11.70;;
12703;SDS011;6416;52.182;7.650;2023-10-13T05:01:13;12.18;;;10.13;;
12703;SDS011;6416;52.182;7.650;2023-10-13T05:03:39;12.68;;;10.23;;
12703;SDS011;6416;52.182;7.650;2023-10-13T05:06:05;11.15;;;9.95;;
12703;SDS011;6416;52.182;7.650;2023-10-13T05:08:31;11.82;;;10.63;;
12703;SDS011;6416;52.182;7.650;2023-10-13T05:10:56;11.52;;;10.40;;
12703;SDS011;6416;52.182;7.650;2023-10-13T05:13:22;15.10;;;11.02;;
12703;SDS011;6416;52.182;7.650;2023-10-13T05:15:48;12.35;;;11.10;;
12703;SDS011;6416;52.182;7.650;2023-10-13T05:18:15;11.73;;;9.93;;
12703;SDS011;6416;52.182;7.650;2023-10-13T05:20:40;11.82;;;10.65;;
12703;SDS011;6416;52.182;7.650;2023-10-13T05:23:06;12.30;;;11.18;;
12703;SDS011;6416;52.182;7.650;2023-10-13T05:25:34;12.38;;;11.02;;
12703;SDS011;6416;52.182;7.650;2023-10-13T05:28:00;12.60;;;11.30;;
12703;SDS011;6416;52.182;7.650;2023-10-13T05:30:26;15.80;;;10.13;;
12703;SDS011;6416;52.182;7.650;2023-10-13T05:32:51;11.50;;;10.25;;
12703;SDS011;6416;52.182;7.650;2023-10-13T05:35:18;13.15;;;9.55;;
12703;SDS011;6416;52.182;7.650;2023-10-13T05:37:45;10.32;;;9.40;;
12703;SDS011;6416;52.182;7.650;2023-10-13T05:40:10;11.88;;;8.77;;
12703;SDS011;6416;52.182;7.650;2023-10-13T05:42:36;10.63;;;8.00;;
12703;SDS011;6416;52.182;7.650;2023-10-13T05:45:01;9.30;;;7.65;;
12703;SDS011;6416;52.182;7.650;2023-10-13T05:47:27;9.48;;;7.38;;
12703;SDS011;6416;52.182;7.650;2023-10-13T05:49:52;8.50;;;7.13;;
12703;SDS011;6416;52.182;7.650;2023-10-13T05:52:18;7.85;;;6.68;;
12703;SDS011;6416;52.182;7.650;2023-10-13T05:54:44;7.15;;;6.43;;
12703;SDS011;6416;52.182;7.650;2023-10-13T05:57:12;6.93;;;6.15;;
12703;SDS011;6416;52.182;7.650;2023-10-13T05:59:38;7.03;;;6.28;;
12703;SDS011;6416;52.182;7.650;2023-10-13T06:02:03;6.93;;;6.22;;
12703;SDS011;6416;52.182;7.650;2023-10-13T06:04:29;8.63;;;6.80;;
12703;SDS011;6416;52.182;7.650;2023-10-13T06:06:55;8.32;;;6.93;;
12703;SDS011;6416;52.182;7.650;2023-10-13T06:09:22;8.43;;;7.13;;
12703;SDS011;6416;52.182;7.650;2023-10-13T06:11:48;7.60;;;6.93;;
12703;SDS011;6416;52.182;7.650;2023-10-13T06:14:13;8.80;;;7.60;;
12703;SDS011;6416;52.182;7.650;2023-10-13T06:16:39;8.10;;;6.97;;
12703;SDS011;6416;52.182;7.650;2023-10-13T06:19:04;9.35;;;8.45;;
12703;SDS011;6416;52.182;7.650;2023-10-13T06:21:30;8.70;;;7.97;;
12703;SDS011;6416;52.182;7.650;2023-10-13T06:23:55;9.43;;;8.40;;
12703;SDS011;6416;52.182;7.650;2023-10-13T06:26:21;9.30;;;7.93;;
12703;SDS011;6416;52.182;7.650;2023-10-13T06:28:46;9.32;;;8.35;;
12703;SDS011;6416;52.182;7.650;2023-10-13T06:31:12;10.18;;;9.18;;
12703;SDS011;6416;52.182;7.650;2023-10-13T06:33:37;9.85;;;8.95;;
12703;SDS011;6416;52.182;7.650;2023-10-13T06:36:03;9.18;;;8.27;;
12703;SDS011;6416;52.182;7.650;2023-10-13T06:38:30;9.23;;;8.32;;
12703;SDS011;6416;52.182;7.650;2023-10-13T06:40:56;9.48;;;8.50;;
12703;SDS011;6416;52.182;7.650;2023-10-13T06:43:22;12.18;;;9.20;;
12703;SDS011;6416;52.182;7.650;2023-10-13T06:45:48;8.98;;;8.18;;
12703;SDS011;6416;52.182;7.650;2023-10-13T06:48:14;9.43;;;8.60;;
12703;SDS011;6416;52.182;7.650;2023-10-13T06:50:39;9.25;;;8.35;;
12703;SDS011;6416;52.182;7.650;2023-10-13T06:53:04;9.02;;;8.07;;
12703;SDS011;6416;52.182;7.650;2023-10-13T06:55:30;9.70;;;7.68;;
12703;SDS011;6416;52.182;7.650;2023-10-13T06:57:55;7.57;;;6.88;;
12703;SDS011;6416;52.182;7.650;2023-10-13T07:00:21;7.10;;;6.40;;
12703;SDS011;6416;52.182;7.650;2023-10-13T07:02:46;7.30;;;6.65;;
12703;SDS011;6416;52.182;7.650;2023-10-13T07:05:12;6.63;;;6.13;;
12703;SDS011;6416;52.182;7.650;2023-10-13T07:07:41;7.03;;;6.32;;
12703;SDS011;6416;52.182;7.650;2023-10-13T07:10:09;7.00;;;6.28;;
12703;SDS011;6416;52.182;7.650;2023-10-13T07:12:35;6.60;;;6.10;;
12703;SDS011;6416;52.182;7.650;2023-10-13T07:15:01;6.82;;;5.82;;
12703;SDS011;6416;52.182;7.650;2023-10-13T07:17:26;6.00;;;5.43;;
12703;SDS011;6416;52.182;7.650;2023-10-13T07:19:52;6.25;;;5.65;;
12703;SDS011;6416;52.182;7.650;2023-10-13T07:22:19;5.72;;;5.22;;
12703;SDS011;6416;52.182;7.650;2023-10-13T07:24:48;7.15;;;5.03;;
12703;SDS011;6416;52.182;7.650;2023-10-13T07:27:15;6.03;;;5.20;;
12703;SDS011;6416;52.182;7.650;2023-10-13T07:29:44;10.30;;;5.45;;
12703;SDS011;6416;52.182;7.650;2023-10-13T07:32:10;6.00;;;5.35;;
12703;SDS011;6416;52.182;7.650;2023-10-13T07:34:35;6.00;;;5.40;;
12703;SDS011;6416;52.182;7.650;2023-10-13T07:37:01;5.63;;;5.20;;
12703;SDS011;6416;52.182;7.650;2023-10-13T07:39:29;6.68;;;4.90;;
12703;SDS011;6416;52.182;7.650;2023-10-13T07:41:56;5.55;;;5.05;;
12703;SDS011;6416;52.182;7.650;2023-10-13T07:44:21;5.10;;;4.60;;
12703;SDS011;6416;52.182;7.650;2023-10-13T07:46:47;6.72;;;5.20;;
12703;SDS011;6416;52.182;7.650;2023-10-13T07:49:12;5.63;;;5.00;;
12703;SDS011;6416;52.182;7.650;2023-10-13T07:51:38;6.82;;;5.43;;
12703;SDS011;6416;52.182;7.650;2023-10-13T07:54:03;5.40;;;4.88;;
12703;SDS011;6416;52.182;7.650;2023-10-13T07:56:29;6.10;;;5.50;;
12703;SDS011;6416;52.182;7.650;2023-10-13T07:58:54;6.85;;;4.95;;
12703;SDS011;6416;52.182;7.650;2023-10-13T08:01:20;6.25;;;4.82;;
12703;SDS011;6416;52.182;7.650;2023-10-13T08:03:46;6.70;;;5.28;;
12703;SDS011;6416;52.182;7.650;2023-10-13T08:06:12;5.30;;;4.72;;
12703;SDS011;6416;52.182;7.650;2023-10-13T08:08:39;9.48;;;5.45;;
12703;SDS011;6416;52.182;7.650;2023-10-13T08:13:30;5.40;;;4.90;;
12703;SDS011;6416;52.182;7.650;2023-10-13T08:15:56;8.68;;;5.78;;
12703;SDS011;6416;52.182;7.650;2023-10-13T08:18:21;5.30;;;4.70;;
12703;SDS011;6416;52.182;7.650;2023-10-13T08:20:47;8.38;;;5.53;;
12703;SDS011;6416;52.182;7.650;2023-10-13T08:23:12;6.65;;;5.35;;
12703;SDS011;6416;52.182;7.650;2023-10-13T08:25:38;6.68;;;6.05;;
12703;SDS011;6416;52.182;7.650;2023-10-13T08:28:06;6.55;;;5.90;;
12703;SDS011;6416;52.182;7.650;2023-10-13T08:30:31;7.22;;;6.53;;
12703;SDS011;6416;52.182;7.650;2023-10-13T08:32:58;6.68;;;6.10;;
12703;SDS011;6416;52.182;7.650;2023-10-13T08:35:23;7.13;;;6.47;;
12703;SDS011;6416;52.182;7.650;2023-10-13T08:37:50;7.57;;;6.88;;
12703;SDS011;6416;52.182;7.650;2023-10-13T08:40:15;7.80;;;7.00;;
12703;SDS011;6416;52.182;7.650;2023-10-13T08:42:41;10.57;;;6.47;;
12703;SDS011;6416;52.182;7.650;2023-10-13T08:45:07;11.23;;;6.97;;
12703;SDS011;6416;52.182;7.650;2023-10-13T08:47:34;8.85;;;6.78;;
12703;SDS011;6416;52.182;7.650;2023-10-13T08:50:01;7.03;;;6.18;;
12703;SDS011;6416;52.182;7.650;2023-10-13T08:52:27;9.05;;;5.80;;
12703;SDS011;6416;52.182;7.650;2023-10-13T08:54:52;9.27;;;5.47;;
12703;SDS011;6416;52.182;7.650;2023-10-13T08:57:18;10.00;;;5.40;;
12703;SDS011;6416;52.182;7.650;2023-10-13T08:59:44;6.78;;;5.05;;
12703;SDS011;6416;52.182;7.650;2023-10-13T09:02:16;5.82;;;4.43;;
12703;SDS011;6416;52.182;7.650;2023-10-13T09:04:42;7.47;;;5.00;;
12703;SDS011;6416;52.182;7.650;2023-10-13T09:07:08;6.85;;;4.30;;
12703;SDS011;6416;52.182;7.650;2023-10-13T09:14:52;6.57;;;4.00;;
12703;SDS011;6416;52.182;7.650;2023-10-13T09:17:18;5.82;;;3.90;;
12703;SDS011;6416;52.182;7.650;2023-10-13T09:19:45;10.43;;;4.38;;
12703;SDS011;6416;52.182;7.650;2023-10-13T09:22:24;10.40;;;4.05;;
12703;SDS011;6416;52.182;7.650;2023-10-13T09:24:54;13.07;;;4.13;;
12703;SDS011;6416;52.182;7.650;2023-10-13T09:27:32;10.07;;;4.97;;
12703;SDS011;6416;52.182;7.650;2023-10-13T09:30:02;14.43;;;4.60;;
12703;SDS011;6416;52.182;7.650;2023-10-13T09:32:29;11.05;;;5.22;;
12703;SDS011;6416;52.182;7.650;2023-10-13T09:34:59;8.05;;;3.92;;
12703;SDS011;6416;52.182;7.650;2023-10-13T09:37:26;7.70;;;3.45;;
12703;SDS011;6416;52.182;7.650;2023-10-13T09:39:51;5.93;;;3.58;;
12703;SDS011;6416;52.182;7.650;2023-10-13T09:42:17;7.55;;;3.83;;
12703;SDS011;6416;52.182;7.650;2023-10-13T09:44:42;7.90;;;4.40;;
12703;SDS011;6416;52.182;7.650;2023-10-13T09:47:10;7.97;;;3.97;;
12703;SDS011;6416;52.182;7.650;2023-10-13T09:49:38;5.85;;;3.70;;
12703;SDS011;6416;52.182;7.650;2023-10-13T09:52:08;8.70;;;3.70;;
12703;SDS011;6416;52.182;7.650;2023-10-13T09:54:36;6.28;;;3.72;;
12703;SDS011;6416;52.182;7.650;2023-10-13T09:57:12;7.22;;;3.47;;
12703;SDS011;6416;52.182;7.650;2023-10-13T09:59:42;9.85;;;4.03;;
12703;SDS011;6416;52.182;7.650;2023-10-13T10:02:11;7.40;;;3.67;;
12703;SDS011;6416;52.182;7.650;2023-10-13T10:04:37;8.32;;;4.00;;
12703;SDS011;6416;52.182;7.650;2023-10-13T10:07:03;5.80;;;3.53;;
12703;SDS011;6416;52.182;7.650;2023-10-13T10:09:29;8.43;;;4.00;;
12703;SDS011;6416;52.182;7.650;2023-10-13T10:17:43;7.88;;;3.85;;
12703;SDS011;6416;52.182;7.650;2023-10-13T10:20:10;7.18;;;3.65;;
12703;SDS011;6416;52.182;7.650;2023-10-13T10:22:35;6.53;;;3.50;;
12703;SDS011;6416;52.182;7.650;2023-10-13T10:25:01;6.10;;;3.65;;
12703;SDS011;6416;52.182;7.650;2023-10-13T10:27:30;8.27;;;4.10;;
12703;SDS011;6416;52.182;7.650;2023-10-13T10:29:57;4.00;;;3.60;;
12703;SDS011;6416;52.182;7.650;2023-10-13T10:32:35;8.10;;;4.00;;
12703;SDS011;6416;52.182;7.650;2023-10-13T10:35:06;8.63;;;4.13;;
12703;SDS011;6416;52.182;7.650;2023-10-13T10:37:35;9.57;;;4.25;;
12703;SDS011;6416;52.182;7.650;2023-10-13T10:40:06;7.32;;;4.30;;
12703;SDS011;6416;52.182;7.650;2023-10-13T10:42:35;6.50;;;3.60;;
12703;SDS011;6416;52.182;7.650;2023-10-13T10:45:01;9.63;;;4.20;;
12703;SDS011;6416;52.182;7.650;2023-10-13T10:47:26;9.45;;;4.38;;
12703;SDS011;6416;52.182;7.650;2023-10-13T10:49:52;6.97;;;3.58;;
12703;SDS011;6416;52.182;7.650;2023-10-13T10:52:17;9.35;;;3.83;;
12703;SDS011;6416;52.182;7.650;2023-10-13T10:54:43;14.13;;;4.97;;
12703;SDS011;6416;52.182;7.650;2023-10-13T10:57:09;9.32;;;4.50;;
12703;SDS011;6416;52.182;7.650;2023-10-13T10:59:35;9.02;;;4.25;;
12703;SDS011;6416;52.182;7.650;2023-10-13T11:02:00;7.10;;;4.40;;
12703;SDS011;6416;52.182;7.650;2023-10-13T11:04:26;7.40;;;4.20;;
12703;SDS011;6416;52.182;7.650;2023-10-13T11:06:54;7.28;;;3.80;;
12703;SDS011;6416;52.182;7.650;2023-10-13T11:11:56;9.75;;;4.43;;
12703;SDS011;6416;52.182;7.650;2023-10-13T11:14:33;6.78;;;4.03;;
12703;SDS011;6416;52.182;7.650;2023-10-13T11:16:59;7.07;;;4.05;;
12703;SDS011;6416;52.182;7.650;2023-10-13T11:19:37;6.25;;;3.80;;
12703;SDS011;6416;52.182;7.650;2023-10-13T11:24:40;8.15;;;4.18;;
12703;SDS011;6416;52.182;7.650;2023-10-13T11:27:13;12.70;;;5.03;;
12703;SDS011;6416;52.182;7.650;2023-10-13T11:29:42;7.75;;;4.20;;
12703;SDS011;6416;52.182;7.650;2023-10-13T11:32:07;7.22;;;4.40;;
12703;SDS011;6416;52.182;7.650;2023-10-13T11:34:33;7.43;;;4.30;;
12703;SDS011;6416;52.182;7.650;2023-10-13T11:36:58;11.13;;;4.47;;
12703;SDS011;6416;52.182;7.650;2023-10-13T11:39:24;7.57;;;4.13;;
12703;SDS011;6416;52.182;7.650;2023-10-13T11:41:49;12.20;;;4.90;;
12703;SDS011;6416;52.182;7.650;2023-10-13T11:44:15;7.80;;;4.13;;
12703;SDS011;6416;52.182;7.650;2023-10-13T11:46:40;10.60;;;4.38;;
12703;SDS011;6416;52.182;7.650;2023-10-13T11:49:06;10.05;;;4.15;;
12703;SDS011;6416;52.182;7.650;2023-10-13T11:51:33;7.63;;;4.32;;
12703;SDS011;6416;52.182;7.650;2023-10-13T11:53:59;11.35;;;4.20;;
12703;SDS011;6416;52.182;7.650;2023-10-13T11:56:24;6.80;;;4.22;;
12703;SDS011;6416;52.182;7.650;2023-10-13T11:58:50;8.25;;;4.20;;
12703;SDS011;6416;52.182;7.650;2023-10-13T12:01:16;10.52;;;4.80;;
12703;SDS011;6416;52.182;7.650;2023-10-13T12:03:43;8.50;;;4.82;;
12703;SDS011;6416;52.182;7.650;2023-10-13T12:06:11;6.70;;;4.50;;
12703;SDS011;6416;52.182;7.650;2023-10-13T12:08:36;6.32;;;3.70;;
12703;SDS011;6416;52.182;7.650;2023-10-13T12:11:02;10.20;;;4.50;;
12703;SDS011;6416;52.182;7.650;2023-10-13T12:13:27;8.45;;;4.20;;
12703;SDS011;6416;52.182;7.650;2023-10-13T12:15:53;6.68;;;4.30;;
12703;SDS011;6416;52.182;7.650;2023-10-13T12:18:18;9.00;;;5.32;;
12703;SDS011;6416;52.182;7.650;2023-10-13T12:20:44;8.75;;;5.18;;
12703;SDS011;6416;52.182;7.650;2023-10-13T12:23:09;11.13;;;4.25;;
12703;SDS011;6416;52.182;7.650;2023-10-13T12:25:36;8.52;;;4.55;;
12703;SDS011;6416;52.182;7.650;2023-10-13T12:28:02;7.75;;;4.50;;
12703;SDS011;6416;52.182;7.650;2023-10-13T12:30:28;10.40;;;4.78;;
12703;SDS011;6416;52.182;7.650;2023-10-13T12:32:53;7.53;;;4.78;;
12703;SDS011;6416;52.182;7.650;2023-10-13T12:35:19;11.05;;;4.70;;
12703;SDS011;6416;52.182;7.650;2023-10-13T12:37:45;10.70;;;4.72;;
12703;SDS011;6416;52.182;7.650;2023-10-13T12:40:14;11.55;;;5.00;;
12703;SDS011;6416;52.182;7.650;2023-10-13T12:42:41;7.93;;;4.35;;
12703;SDS011;6416;52.182;7.650;2023-10-13T12:45:06;7.55;;;4.03;;
12703;SDS011;6416;52.182;7.650;2023-10-13T12:47:32;6.82;;;4.30;;
12703;SDS011;6416;52.182;7.650;2023-10-13T12:49:57;9.63;;;4.53;;
12703;SDS011;6416;52.182;7.650;2023-10-13T12:52:23;7.03;;;4.05;;
12703;SDS011;6416;52.182;7.650;2023-10-13T12:54:48;13.95;;;5.40;;
12703;SDS011;6416;52.182;7.650;2023-10-13T12:57:14;8.23;;;4.47;;
12703;SDS011;6416;52.182;7.650;2023-10-13T12:59:40;10.63;;;4.68;;
12703;SDS011;6416;52.182;7.650;2023-10-13T13:02:05;8.50;;;4.50;;
12703;SDS011;6416;52.182;7.650;2023-10-13T13:04:31;8.68;;;4.22;;
12703;SDS011;6416;52.182;7.650;2023-10-13T13:06:56;6.85;;;4.15;;
12703;SDS011;6416;52.182;7.650;2023-10-13T13:09:22;8.05;;;4.53;;
12703;SDS011;6416;52.182;7.650;2023-10-13T13:11:47;9.63;;;4.80;;
12703;SDS011;6416;52.182;7.650;2023-10-13T13:14:12;7.72;;;4.80;;
12703;SDS011;6416;52.182;7.650;2023-10-13T13:16:38;10.07;;;4.53;;
12703;SDS011;6416;52.182;7.650;2023-10-13T13:19:03;11.73;;;4.80;;
12703;SDS011;6416;52.182;7.650;2023-10-13T13:21:29;10.52;;;4.65;;
12703;SDS011;6416;52.182;7.650;2023-10-13T13:23:55;10.45;;;4.55;;
12703;SDS011;6416;52.182;7.650;2023-10-13T13:26:21;15.32;;;4.72;;
12703;SDS011;6416;52.182;7.650;2023-10-13T13:28:49;12.63;;;5.25;;
12703;SDS011;6416;52.182;7.650;2023-10-13T13:31:15;9.73;;;4.50;;
12703;SDS011;6416;52.182;7.650;2023-10-13T13:33:44;8.88;;;4.72;;
12703;SDS011;6416;52.182;7.650;2023-10-13T13:36:10;10.13;;;5.57;;
12703;SDS011;6416;52.182;7.650;2023-10-13T13:38:35;6.88;;;4.50;;
12703;SDS011;6416;52.182;7.650;2023-10-13T13:41:01;7.20;;;4.03;;
12703;SDS011;6416;52.182;7.650;2023-10-13T13:43:26;9.77;;;4.93;;
12703;SDS011;6416;52.182;7.650;2023-10-13T13:45:52;9.65;;;5.07;;
12703;SDS011;6416;52.182;7.650;2023-10-13T13:48:17;12.98;;;5.57;;
12703;SDS011;6416;52.182;7.650;2023-10-13T13:50:43;10.18;;;4.82;;
12703;SDS011;6416;52.182;7.650;2023-10-13T13:53:08;8.23;;;4.68;;
12703;SDS011;6416;52.182;7.650;2023-10-13T13:55:34;10.70;;;5.03;;
12703;SDS011;6416;52.182;7.650;2023-10-13T13:58:02;11.13;;;4.75;;
12703;SDS011;6416;52.182;7.650;2023-10-13T14:00:29;9.13;;;4.65;;
12703;SDS011;6416;52.182;7.650;2023-10-13T14:02:55;16.33;;;5.18;;
12703;SDS011;6416;52.182;7.650;2023-10-13T14:05:20;8.90;;;4.72;;
12703;SDS011;6416;52.182;7.650;2023-10-13T14:07:46;7.45;;;4.45;;
12703;SDS011;6416;52.182;7.650;2023-10-13T14:10:11;12.30;;;5.05;;
12703;SDS011;6416;52.182;7.650;2023-10-13T14:12:37;14.13;;;5.10;;
12703;SDS011;6416;52.182;7.650;2023-10-13T14:15:03;8.98;;;4.43;;
12703;SDS011;6416;52.182;7.650;2023-10-13T14:17:29;12.00;;;4.93;;
12703;SDS011;6416;52.182;7.650;2023-10-13T14:19:57;8.90;;;5.00;;
12703;SDS011;6416;52.182;7.650;2023-10-13T14:22:23;12.32;;;4.43;;
12703;SDS011;6416;52.182;7.650;2023-10-13T14:24:49;13.55;;;4.55;;
12703;SDS011;6416;52.182;7.650;2023-10-13T14:27:14;11.48;;;5.00;;
12703;SDS011;6416;52.182;7.650;2023-10-13T14:29:40;14.35;;;4.22;;
12703;SDS011;6416;52.182;7.650;2023-10-13T14:32:06;9.38;;;4.03;;
12703;SDS011;6416;52.182;7.650;2023-10-13T14:34:32;12.27;;;4.78;;
12703;SDS011;6416;52.182;7.650;2023-10-13T14:36:58;19.80;;;4.65;;
12703;SDS011;6416;52.182;7.650;2023-10-13T14:39:23;10.73;;;5.10;;
12703;SDS011;6416;52.182;7.650;2023-10-13T14:41:49;9.13;;;4.63;;
12703;SDS011;6416;52.182;7.650;2023-10-13T14:44:14;11.35;;;4.13;;
12703;SDS011;6416;52.182;7.650;2023-10-13T14:46:40;9.40;;;4.40;;
12703;SDS011;6416;52.182;7.650;2023-10-13T14:49:05;14.35;;;4.45;;
12703;SDS011;6416;52.182;7.650;2023-10-13T14:51:31;10.70;;;4.30;;
12703;SDS011;6416;52.182;7.650;2023-10-13T14:53:57;12.57;;;4.53;;
12703;SDS011;6416;52.182;7.650;2023-10-13T14:56:23;10.48;;;3.55;;
12703;SDS011;6416;52.182;7.650;2023-10-13T14:58:48;10.30;;;4.15;;
12703;SDS011;6416;52.182;7.650;2023-10-13T15:01:14;15.73;;;4.32;;
12703;SDS011;6416;52.182;7.650;2023-10-13T15:03:43;9.13;;;4.00;;
12703;SDS011;6416;52.182;7.650;2023-10-13T15:06:20;8.95;;;4.57;;
12703;SDS011;6416;52.182;7.650;2023-10-13T15:08:47;9.35;;;3.42;;